sensor_id;sensor_type;location;lat;lon;timestamp;pressure;altitude;pressure_sealevel;temperature;humidity
76847;BME280;65813;49.546;8.644;2023-07-20T03:48:16;100415.41;;;19.29;54.13
76847;BME280;65813;49.546;8.644;2023-07-20T03:52:16;100424.53;;;19.20;54.39
76847;BME280;65813;49.546;8.644;2023-07-20T03:56:17;100423.03;;;19.41;54.20
76847;BME280;65813;49.546;8.644;2023-07-20T04:00:18;100427.34;;;19.10;55.19
76847;BME280;65813;49.546;8.644;2023-07-20T04:04:18;100422.69;;;19.36;55.05
76847;BME280;65813;49.546;8.644;2023-07-20T04:08:19;100429.09;;;19.35;55.28
76847;BME280;65813;49.546;8.644;2023-07-20T04:12:19;100433.28;;;19.38;54.80
76847;BME280;65813;49.546;8.644;2023-07-20T04:16:19;100436.84;;;19.38;55.17
76847;BME280;65813;49.546;8.644;2023-07-20T04:20:20;100433.13;;;19.31;55.42
76847;BME280;65813;49.546;8.644;2023-07-20T04:24:21;100447.16;;;19.27;54.82
76847;BME280;65813;49.546;8.644;2023-07-20T04:28:21;100450.00;;;19.17;55.17
76847;BME280;65813;49.546;8.644;2023-07-20T04:32:22;100442.59;;;19.35;55.29
76847;BME280;65813;49.546;8.644;2023-07-20T04:36:22;100450.16;;;18.99;56.64
76847;BME280;65813;49.546;8.644;2023-07-20T04:40:23;100442.44;;;18.37;58.10
76847;BME280;65813;49.546;8.644;2023-07-20T04:44:23;100461.41;;;17.76;60.45
76847;BME280;65813;49.546;8.644;2023-07-20T04:48:23;100462.59;;;18.25;59.52
76847;BME280;65813;49.546;8.644;2023-07-20T04:52:24;100455.88;;;18.54;57.96
76847;BME280;65813;49.546;8.644;2023-07-20T04:56:24;100462.41;;;17.92;59.59
76847;BME280;65813;49.546;8.644;2023-07-20T05:00:25;100444.81;;;18.06;59.71
76847;BME280;65813;49.546;8.644;2023-07-20T05:04:25;100451.81;;;18.25;59.45
76847;BME280;65813;49.546;8.644;2023-07-20T05:08:25;100447.00;;;17.85;60.13
76847;BME280;65813;49.546;8.644;2023-07-20T05:12:26;100447.06;;;17.93;60.70
76847;BME280;65813;49.546;8.644;2023-07-20T05:16:26;100439.66;;;18.21;60.34
76847;BME280;65813;49.546;8.644;2023-07-20T05:20:26;100452.84;;;18.24;60.44
76847;BME280;65813;49.546;8.644;2023-07-20T05:24:27;100450.88;;;18.34;60.00
76847;BME280;65813;49.546;8.644;2023-07-20T05:28:27;100445.66;;;18.40;59.29
76847;BME280;65813;49.546;8.644;2023-07-20T05:32:28;100444.22;;;18.20;59.81
76847;BME280;65813;49.546;8.644;2023-07-20T05:36:28;100447.38;;;18.15;60.42
76847;BME280;65813;49.546;8.644;2023-07-20T05:40:28;100447.19;;;18.09;60.45
76847;BME280;65813;49.546;8.644;2023-07-20T05:44:29;100444.47;;;18.09;60.77
76847;BME280;65813;49.546;8.644;2023-07-20T05:48:29;100450.97;;;18.24;60.59
76847;BME280;65813;49.546;8.644;2023-07-20T05:52:29;100450.44;;;18.21;60.44
76847;BME280;65813;49.546;8.644;2023-07-20T05:56:30;100454.75;;;18.65;59.40
76847;BME280;65813;49.546;8.644;2023-07-20T06:00:30;100456.94;;;18.61;58.80
76847;BME280;65813;49.546;8.644;2023-07-20T06:04:31;100465.22;;;18.68;58.31
76847;BME280;65813;49.546;8.644;2023-07-20T06:08:31;100463.66;;;18.57;59.21
76847;BME280;65813;49.546;8.644;2023-07-20T06:12:31;100456.63;;;18.73;58.21
76847;BME280;65813;49.546;8.644;2023-07-20T06:16:33;100457.13;;;18.76;58.08
76847;BME280;65813;49.546;8.644;2023-07-20T06:20:33;100463.94;;;18.88;57.98
76847;BME280;65813;49.546;8.644;2023-07-20T06:24:34;100458.22;;;18.91;58.20
76847;BME280;65813;49.546;8.644;2023-07-20T06:28:34;100450.88;;;18.76;58.10
76847;BME280;65813;49.546;8.644;2023-07-20T06:32:34;100460.28;;;18.30;59.73
76847;BME280;65813;49.546;8.644;2023-07-20T06:36:35;100458.84;;;18.77;58.74
76847;BME280;65813;49.546;8.644;2023-07-20T06:40:35;100463.13;;;19.04;57.27
76847;BME280;65813;49.546;8.644;2023-07-20T06:44:35;100465.69;;;19.13;57.14
76847;BME280;65813;49.546;8.644;2023-07-20T06:48:36;100459.47;;;19.29;55.94
76847;BME280;65813;49.546;8.644;2023-07-20T06:52:36;100469.09;;;19.24;56.32
76847;BME280;65813;49.546;8.644;2023-07-20T06:56:37;100462.84;;;19.31;55.74
76847;BME280;65813;49.546;8.644;2023-07-20T07:00:37;100462.06;;;19.47;55.15
76847;BME280;65813;49.546;8.644;2023-07-20T07:04:37;100462.34;;;19.36;56.39
76847;BME280;65813;49.546;8.644;2023-07-20T07:08:38;100468.13;;;19.49;56.31
76847;BME280;65813;49.546;8.644;2023-07-20T07:12:38;100460.00;;;19.97;54.16
76847;BME280;65813;49.546;8.644;2023-07-20T07:16:38;100462.06;;;19.71;55.31
76847;BME280;65813;49.546;8.644;2023-07-20T07:20:39;100453.94;;;19.87;54.62
76847;BME280;65813;49.546;8.644;2023-07-20T07:24:40;100460.22;;;19.96;54.45
76847;BME280;65813;49.546;8.644;2023-07-20T07:28:42;100452.22;;;20.10;54.56
76847;BME280;65813;49.546;8.644;2023-07-20T07:32:42;100453.59;;;19.98;54.29
76847;BME280;65813;49.546;8.644;2023-07-20T07:36:43;100448.13;;;20.31;53.58
76847;BME280;65813;49.546;8.644;2023-07-20T07:40:43;100442.22;;;20.35;53.67
76847;BME280;65813;49.546;8.644;2023-07-20T07:44:44;100449.19;;;20.30;52.91
76847;BME280;65813;49.546;8.644;2023-07-20T07:48:45;100457.59;;;20.27;53.92
76847;BME280;65813;49.546;8.644;2023-07-20T07:52:45;100466.59;;;20.27;54.11
76847;BME280;65813;49.546;8.644;2023-07-20T07:56:46;100465.38;;;20.22;51.96
76847;BME280;65813;49.546;8.644;2023-07-20T08:00:46;100461.69;;;20.14;52.83
76847;BME280;65813;49.546;8.644;2023-07-20T08:04:48;100471.50;;;20.15;53.81
76847;BME280;65813;49.546;8.644;2023-07-20T08:08:48;100471.50;;;20.15;53.73
76847;BME280;65813;49.546;8.644;2023-07-20T08:12:48;100469.44;;;20.26;53.43
76847;BME280;65813;49.546;8.644;2023-07-20T08:16:49;100459.44;;;20.42;52.34
76847;BME280;65813;49.546;8.644;2023-07-20T08:20:49;100462.00;;;20.44;51.37
76847;BME280;65813;49.546;8.644;2023-07-20T08:24:50;100461.78;;;20.53;50.55
76847;BME280;65813;49.546;8.644;2023-07-20T08:28:50;100460.94;;;20.53;50.92
76847;BME280;65813;49.546;8.644;2023-07-20T08:32:50;100466.34;;;20.53;50.23
76847;BME280;65813;49.546;8.644;2023-07-20T08:36:51;100465.69;;;20.43;49.94
76847;BME280;65813;49.546;8.644;2023-07-20T08:40:51;100473.84;;;20.35;50.31
76847;BME280;65813;49.546;8.644;2023-07-20T08:44:54;100476.38;;;20.36;50.13
76847;BME280;65813;49.546;8.644;2023-07-20T08:48:56;100472.00;;;20.82;50.40
76847;BME280;65813;49.546;8.644;2023-07-20T08:52:58;100463.06;;;21.35;49.41
76847;BME280;65813;49.546;8.644;2023-07-20T08:57:01;100460.13;;;21.67;48.50
76847;BME280;65813;49.546;8.644;2023-07-20T09:01:02;100458.44;;;21.44;48.15
76847;BME280;65813;49.546;8.644;2023-07-20T09:05:03;100459.91;;;21.69;47.78
76847;BME280;65813;49.546;8.644;2023-07-20T09:09:04;100458.25;;;21.68;46.95
76847;BME280;65813;49.546;8.644;2023-07-20T09:13:05;100456.75;;;21.43;47.81
76847;BME280;65813;49.546;8.644;2023-07-20T09:17:06;100452.91;;;21.37;49.65
76847;BME280;65813;49.546;8.644;2023-07-20T09:21:16;100454.09;;;21.35;47.82
76847;BME280;65813;49.546;8.644;2023-07-20T09:25:18;100448.06;;;21.25;47.55
76847;BME280;65813;49.546;8.644;2023-07-20T09:29:22;100442.56;;;21.55;46.20
76847;BME280;65813;49.546;8.644;2023-07-20T09:33:23;100453.31;;;21.86;45.50
76847;BME280;65813;49.546;8.644;2023-07-20T09:37:23;100444.81;;;21.89;44.96
76847;BME280;65813;49.546;8.644;2023-07-20T09:41:24;100446.88;;;22.39;43.94
76847;BME280;65813;49.546;8.644;2023-07-20T09:45:39;100444.91;;;22.19;45.19
76847;BME280;65813;49.546;8.644;2023-07-20T09:49:40;100441.66;;;22.23;44.97
76847;BME280;65813;49.546;8.644;2023-07-20T09:53:41;100451.84;;;22.06;45.69
76847;BME280;65813;49.546;8.644;2023-07-20T09:57:41;100446.75;;;22.03;45.58
76847;BME280;65813;49.546;8.644;2023-07-20T10:01:43;100442.44;;;21.94;43.81
76847;BME280;65813;49.546;8.644;2023-07-20T10:05:52;100443.75;;;21.98;45.48
76847;BME280;65813;49.546;8.644;2023-07-20T10:09:55;100443.66;;;21.92;45.38
76847;BME280;65813;49.546;8.644;2023-07-20T10:13:59;100436.13;;;22.17;44.54
76847;BME280;65813;49.546;8.644;2023-07-20T10:22:14;100428.56;;;23.06;42.51
76847;BME280;65813;49.546;8.644;2023-07-20T10:26:16;100430.13;;;23.37;42.25
76847;BME280;65813;49.546;8.644;2023-07-20T10:30:18;100419.28;;;23.58;42.88
76847;BME280;65813;49.546;8.644;2023-07-20T10:34:19;100416.41;;;23.66;40.91
76847;BME280;65813;49.546;8.644;2023-07-20T10:38:41;100411.47;;;24.04;41.47
76847;BME280;65813;49.546;8.644;2023-07-20T10:42:42;100397.72;;;23.84;41.27
76847;BME280;65813;49.546;8.644;2023-07-20T10:46:43;100391.44;;;23.84;41.41
76847;BME280;65813;49.546;8.644;2023-07-20T10:50:46;100385.84;;;23.92;40.75
76847;BME280;65813;49.546;8.644;2023-07-20T10:55:16;100387.69;;;24.12;40.45
76847;BME280;65813;49.546;8.644;2023-07-20T10:59:20;100391.94;;;24.22;39.58
76847;BME280;65813;49.546;8.644;2023-07-20T11:03:37;100365.06;;;24.53;39.71
76847;BME280;65813;49.546;8.644;2023-07-20T11:07:41;100354.66;;;24.22;39.18
76847;BME280;65813;49.546;8.644;2023-07-20T11:11:46;100365.56;;;23.94;39.32
76847;BME280;65813;49.546;8.644;2023-07-20T11:20:00;100374.19;;;23.49;40.31
76847;BME280;65813;49.546;8.644;2023-07-20T11:24:03;100374.66;;;23.52;40.58
76847;BME280;65813;49.546;8.644;2023-07-20T11:28:07;100355.47;;;23.88;39.97
76847;BME280;65813;49.546;8.644;2023-07-20T11:32:07;100355.03;;;24.12;39.92
76847;BME280;65813;49.546;8.644;2023-07-20T11:36:08;100347.19;;;24.03;39.92
76847;BME280;65813;49.546;8.644;2023-07-20T11:40:09;100348.00;;;24.03;40.22
76847;BME280;65813;49.546;8.644;2023-07-20T11:44:10;100346.75;;;23.99;38.89
76847;BME280;65813;49.546;8.644;2023-07-20T11:48:16;100344.91;;;24.06;38.54
76847;BME280;65813;49.546;8.644;2023-07-20T11:52:17;100340.06;;;24.02;38.94
76847;BME280;65813;49.546;8.644;2023-07-20T11:56:17;100333.91;;;23.93;36.59
76847;BME280;65813;49.546;8.644;2023-07-20T12:00:18;100333.16;;;23.99;37.17
76847;BME280;65813;49.546;8.644;2023-07-20T12:04:18;100329.31;;;23.94;37.65
76847;BME280;65813;49.546;8.644;2023-07-20T12:08:19;100321.75;;;23.89;39.52
76847;BME280;65813;49.546;8.644;2023-07-20T12:12:20;100328.66;;;23.85;39.45
76847;BME280;65813;49.546;8.644;2023-07-20T12:16:20;100321.94;;;23.81;37.92
76847;BME280;65813;49.546;8.644;2023-07-20T12:20:30;100317.34;;;23.82;38.42
76847;BME280;65813;49.546;8.644;2023-07-20T12:24:31;100319.75;;;23.70;37.92
76847;BME280;65813;49.546;8.644;2023-07-20T12:28:32;100308.66;;;23.65;38.35
76847;BME280;65813;49.546;8.644;2023-07-20T12:32:32;100311.63;;;23.77;39.08
76847;BME280;65813;49.546;8.644;2023-07-20T12:36:33;100311.59;;;24.04;38.59
76847;BME280;65813;49.546;8.644;2023-07-20T12:40:34;100304.53;;;24.57;37.16
76847;BME280;65813;49.546;8.644;2023-07-20T12:44:36;100298.31;;;24.83;36.75
76847;BME280;65813;49.546;8.644;2023-07-20T12:48:36;100289.13;;;25.04;35.65
76847;BME280;65813;49.546;8.644;2023-07-20T12:52:38;100288.69;;;24.94;35.95
76847;BME280;65813;49.546;8.644;2023-07-20T12:56:39;100296.78;;;24.61;36.73
76847;BME280;65813;49.546;8.644;2023-07-20T13:00:39;100289.81;;;24.52;37.50
76847;BME280;65813;49.546;8.644;2023-07-20T13:04:41;100276.91;;;24.80;37.02
76847;BME280;65813;49.546;8.644;2023-07-20T13:08:41;100268.38;;;25.09;36.51
76847;BME280;65813;49.546;8.644;2023-07-20T13:12:42;100275.44;;;25.76;34.48
76847;BME280;65813;49.546;8.644;2023-07-20T13:16:43;100271.47;;;25.79;33.96
76847;BME280;65813;49.546;8.644;2023-07-20T13:20:43;100262.16;;;25.99;33.33
76847;BME280;65813;49.546;8.644;2023-07-20T13:24:45;100258.00;;;25.84;33.93
76847;BME280;65813;49.546;8.644;2023-07-20T13:28:48;100264.06;;;25.99;33.40
76847;BME280;65813;49.546;8.644;2023-07-20T13:32:49;100254.22;;;25.91;31.55
76847;BME280;65813;49.546;8.644;2023-07-20T13:36:49;100242.88;;;25.88;32.82
76847;BME280;65813;49.546;8.644;2023-07-20T13:40:49;100239.81;;;26.22;32.27
76847;BME280;65813;49.546;8.644;2023-07-20T13:44:50;100249.75;;;26.54;31.95
76847;BME280;65813;49.546;8.644;2023-07-20T13:48:50;100245.88;;;26.62;32.77
76847;BME280;65813;49.546;8.644;2023-07-20T13:52:50;100232.81;;;26.71;33.83
76847;BME280;65813;49.546;8.644;2023-07-20T13:56:51;100232.06;;;26.57;31.11
76847;BME280;65813;49.546;8.644;2023-07-20T14:00:51;100233.81;;;26.45;33.08
76847;BME280;65813;49.546;8.644;2023-07-20T14:04:51;100227.50;;;26.76;32.47
76847;BME280;65813;49.546;8.644;2023-07-20T14:08:54;100228.47;;;26.94;32.24
76847;BME280;65813;49.546;8.644;2023-07-20T14:12:55;100223.59;;;26.96;33.61
76847;BME280;65813;49.546;8.644;2023-07-20T14:16:55;100222.19;;;26.87;34.09
76847;BME280;65813;49.546;8.644;2023-07-20T14:20:56;100228.81;;;26.35;34.13
76847;BME280;65813;49.546;8.644;2023-07-20T14:24:56;100222.41;;;26.17;34.14
76847;BME280;65813;49.546;8.644;2023-07-20T14:28:57;100224.16;;;25.91;34.41
76847;BME280;65813;49.546;8.644;2023-07-20T14:32:57;100217.06;;;25.84;35.10
76847;BME280;65813;49.546;8.644;2023-07-20T14:36:59;100211.66;;;25.71;35.61
76847;BME280;65813;49.546;8.644;2023-07-20T14:40:59;100209.56;;;25.66;35.65
76847;BME280;65813;49.546;8.644;2023-07-20T14:45:00;100209.13;;;25.69;36.64
76847;BME280;65813;49.546;8.644;2023-07-20T14:49:00;100202.06;;;26.06;35.59
76847;BME280;65813;49.546;8.644;2023-07-20T14:53:01;100204.88;;;26.31;33.74
76847;BME280;65813;49.546;8.644;2023-07-20T14:57:02;100197.41;;;26.20;35.33
76847;BME280;65813;49.546;8.644;2023-07-20T15:01:04;100201.47;;;26.42;34.33
76847;BME280;65813;49.546;8.644;2023-07-20T15:05:07;100189.78;;;26.28;33.97
76847;BME280;65813;49.546;8.644;2023-07-20T15:09:07;100192.59;;;26.08;35.66
76847;BME280;65813;49.546;8.644;2023-07-20T15:13:08;100194.63;;;25.75;35.13
76847;BME280;65813;49.546;8.644;2023-07-20T15:17:09;100189.84;;;25.57;33.87
76847;BME280;65813;49.546;8.644;2023-07-20T15:21:10;100182.91;;;25.68;35.86
76847;BME280;65813;49.546;8.644;2023-07-20T15:25:10;100184.06;;;25.92;35.56
76847;BME280;65813;49.546;8.644;2023-07-20T15:29:11;100171.84;;;26.39;34.85
76847;BME280;65813;49.546;8.644;2023-07-20T15:33:11;100169.38;;;26.31;34.57
76847;BME280;65813;49.546;8.644;2023-07-20T15:37:12;100173.69;;;26.07;34.81
76847;BME280;65813;49.546;8.644;2023-07-20T15:41:13;100164.75;;;25.87;35.86
76847;BME280;65813;49.546;8.644;2023-07-20T15:45:14;100167.78;;;25.66;35.82
76847;BME280;65813;49.546;8.644;2023-07-20T15:49:15;100158.16;;;25.50;37.88
76847;BME280;65813;49.546;8.644;2023-07-20T15:53:15;100161.09;;;25.42;37.31
76847;BME280;65813;49.546;8.644;2023-07-20T15:57:15;100152.47;;;25.65;37.22
76847;BME280;65813;49.546;8.644;2023-07-20T16:01:16;100142.41;;;25.65;37.18
76847;BME280;65813;49.546;8.644;2023-07-20T16:05:16;100132.59;;;25.51;35.13
76847;BME280;65813;49.546;8.644;2023-07-20T16:09:17;100132.13;;;25.60;34.66
76847;BME280;65813;49.546;8.644;2023-07-20T16:13:17;100116.81;;;25.97;33.68
76847;BME280;65813;49.546;8.644;2023-07-20T16:17:17;100124.91;;;26.10;34.18
76847;BME280;65813;49.546;8.644;2023-07-20T16:21:17;100115.22;;;25.83;32.58
76847;BME280;65813;49.546;8.644;2023-07-20T16:25:18;100111.31;;;25.66;33.02
76847;BME280;65813;49.546;8.644;2023-07-20T16:29:18;100123.50;;;25.63;33.26
76847;BME280;65813;49.546;8.644;2023-07-20T16:33:19;100108.63;;;25.53;33.07
76847;BME280;65813;49.546;8.644;2023-07-20T16:37:20;100120.38;;;25.60;33.69
76847;BME280;65813;49.546;8.644;2023-07-20T16:41:20;100104.47;;;25.50;33.04
76847;BME280;65813;49.546;8.644;2023-07-20T16:45:20;100111.75;;;25.63;33.90
76847;BME280;65813;49.546;8.644;2023-07-20T16:49:21;100110.06;;;25.62;33.24
76847;BME280;65813;49.546;8.644;2023-07-20T16:53:21;100099.00;;;25.44;33.72
76847;BME280;65813;49.546;8.644;2023-07-20T16:57:21;100098.34;;;25.55;35.82
76847;BME280;65813;49.546;8.644;2023-07-20T17:01:22;100097.50;;;25.48;35.55
76847;BME280;65813;49.546;8.644;2023-07-20T17:05:22;100101.09;;;25.42;34.80
76847;BME280;65813;49.546;8.644;2023-07-20T17:09:22;100087.47;;;25.35;34.08
76847;BME280;65813;49.546;8.644;2023-07-20T17:13:23;100088.75;;;25.33;34.92
76847;BME280;65813;49.546;8.644;2023-07-20T17:17:23;100089.34;;;25.35;34.97
76847;BME280;65813;49.546;8.644;2023-07-20T17:21:24;100092.31;;;25.33;34.44
76847;BME280;65813;49.546;8.644;2023-07-20T17:25:24;100093.16;;;25.34;35.49
76847;BME280;65813;49.546;8.644;2023-07-20T17:29:24;100088.94;;;25.31;35.45
76847;BME280;65813;49.546;8.644;2023-07-20T17:33:25;100085.00;;;25.21;36.18
76847;BME280;65813;49.546;8.644;2023-07-20T17:37:25;100082.75;;;24.98;35.78
76847;BME280;65813;49.546;8.644;2023-07-20T17:41:25;100075.22;;;24.93;36.17
76847;BME280;65813;49.546;8.644;2023-07-20T17:45:26;100080.63;;;25.06;36.91
76847;BME280;65813;49.546;8.644;2023-07-20T17:49:26;100085.03;;;25.07;38.00
76847;BME280;65813;49.546;8.644;2023-07-20T17:53:26;100080.66;;;24.93;36.91
76847;BME280;65813;49.546;8.644;2023-07-20T17:57:27;100081.91;;;25.04;37.90
76847;BME280;65813;49.546;8.644;2023-07-20T18:01:27;100080.63;;;25.06;35.71
76847;BME280;65813;49.546;8.644;2023-07-20T18:05:28;100078.97;;;25.05;35.88
76847;BME280;65813;49.546;8.644;2023-07-20T18:09:28;100077.94;;;25.00;36.20
76847;BME280;65813;49.546;8.644;2023-07-20T18:13:29;100079.41;;;25.02;36.68
76847;BME280;65813;49.546;8.644;2023-07-20T18:17:29;100080.66;;;25.00;36.80
76847;BME280;65813;49.546;8.644;2023-07-20T18:21:30;100075.66;;;24.90;37.55
76847;BME280;65813;49.546;8.644;2023-07-20T18:25:30;100074.81;;;24.83;36.69
76847;BME280;65813;49.546;8.644;2023-07-20T18:29:30;100078.16;;;24.72;36.91
76847;BME280;65813;49.546;8.644;2023-07-20T18:33:31;100072.28;;;24.69;37.20
76847;BME280;65813;49.546;8.644;2023-07-20T18:37:31;100076.50;;;24.58;37.72
76847;BME280;65813;49.546;8.644;2023-07-20T18:41:32;100078.19;;;24.46;37.56
76847;BME280;65813;49.546;8.644;2023-07-20T18:45:32;100082.38;;;24.42;37.79
76847;BME280;65813;49.546;8.644;2023-07-20T18:49:32;100081.09;;;24.38;37.53
76847;BME280;65813;49.546;8.644;2023-07-20T18:53:36;100081.09;;;24.25;37.97
76847;BME280;65813;49.546;8.644;2023-07-20T18:57:36;100084.66;;;24.19;38.06
76847;BME280;65813;49.546;8.644;2023-07-20T19:01:37;100081.72;;;24.13;38.04
76847;BME280;65813;49.546;8.644;2023-07-20T19:05:37;100080.44;;;24.09;39.16
76847;BME280;65813;49.546;8.644;2023-07-20T19:09:40;100084.81;;;24.04;38.80
76847;BME280;65813;49.546;8.644;2023-07-20T19:13:41;100085.88;;;24.03;39.13
76847;BME280;65813;49.546;8.644;2023-07-20T19:17:44;100085.63;;;23.91;38.99
76847;BME280;65813;49.546;8.644;2023-07-20T19:21:44;100092.53;;;23.94;37.88
76847;BME280;65813;49.546;8.644;2023-07-20T19:25:45;100091.47;;;23.82;37.29
76847;BME280;65813;49.546;8.644;2023-07-20T19:29:45;100098.56;;;23.76;37.50
76847;BME280;65813;49.546;8.644;2023-07-20T19:33:45;100106.47;;;23.58;37.49
76847;BME280;65813;49.546;8.644;2023-07-20T19:37:46;100101.84;;;23.58;37.42
76847;BME280;65813;49.546;8.644;2023-07-20T19:41:46;100100.16;;;23.51;37.96
76847;BME280;65813;49.546;8.644;2023-07-20T19:45:48;100109.28;;;23.37;37.72
76847;BME280;65813;49.546;8.644;2023-07-20T19:49:49;100117.59;;;23.29;37.75
76847;BME280;65813;49.546;8.644;2023-07-20T19:53:49;100114.66;;;23.24;37.70
76847;BME280;65813;49.546;8.644;2023-07-20T19:57:50;100112.78;;;23.31;37.48
76847;BME280;65813;49.546;8.644;2023-07-20T20:01:50;100124.22;;;23.20;37.34
76847;BME280;65813;49.546;8.644;2023-07-20T20:05:51;100119.50;;;23.00;37.81
76847;BME280;65813;49.546;8.644;2023-07-20T20:09:52;100111.34;;;23.00;37.81
76847;BME280;65813;49.546;8.644;2023-07-20T20:13:52;100119.69;;;22.92;38.55
76847;BME280;65813;49.546;8.644;2023-07-20T20:17:53;100113.31;;;22.79;38.41
76847;BME280;65813;49.546;8.644;2023-07-20T20:21:54;100108.56;;;22.66;38.51
76847;BME280;65813;49.546;8.644;2023-07-20T20:26:00;100099.56;;;22.65;38.28
76847;BME280;65813;49.546;8.644;2023-07-20T20:30:01;100098.50;;;22.60;38.65
76847;BME280;65813;49.546;8.644;2023-07-20T20:34:01;100096.56;;;22.54;39.43
76847;BME280;65813;49.546;8.644;2023-07-20T20:38:01;100100.00;;;22.41;39.76
76847;BME280;65813;49.546;8.644;2023-07-20T20:42:02;100095.75;;;22.32;39.93
